createdAt,value
2018-05-07T00:00:13.036Z,1008.13
2018-05-07T00:01:13.155Z,1008.10
2018-05-07T00:02:12.962Z,1008.10
2018-05-07T00:03:12.946Z,1008.08
2018-05-07T00:04:12.920Z,1008.07
2018-05-07T00:05:12.893Z,1008.06
2018-05-07T00:06:12.890Z,1008.04
2018-05-07T00:07:12.873Z,1008.06
2018-05-07T00:08:12.816Z,1008.03
2018-05-07T00:09:12.819Z,1008.03
2018-05-07T00:10:12.777Z,1008.03
2018-05-07T00:11:12.744Z,1008.03
2018-05-07T00:12:12.758Z,1007.99
2018-05-07T00:13:12.705Z,1007.99
2018-05-07T00:14:12.673Z,1007.99
2018-05-07T00:15:12.652Z,1007.98
2018-05-07T00:16:12.627Z,1007.94
2018-05-07T00:17:12.603Z,1007.93
2018-05-07T00:18:12.583Z,1007.91
2018-05-07T00:19:12.545Z,1007.89
2018-05-07T00:20:12.535Z,1007.89
2018-05-07T00:21:12.507Z,1007.89
2018-05-07T00:22:12.494Z,1007.87
2018-05-07T00:23:12.448Z,1007.88
2018-05-07T00:24:12.429Z,1007.87
2018-05-07T00:25:12.414Z,1007.83
2018-05-07T00:26:12.375Z,1007.84
2018-05-07T00:27:12.354Z,1007.85
2018-05-07T00:28:12.341Z,1007.87
2018-05-07T00:29:12.316Z,1007.87
2018-05-07T00:30:12.287Z,1007.87
2018-05-07T00:31:12.255Z,1007.86
2018-05-07T00:32:12.238Z,1007.87
2018-05-07T00:33:12.242Z,1007.86
2018-05-07T00:34:12.228Z,1007.82
2018-05-07T00:35:12.165Z,1007.82
2018-05-07T00:36:12.140Z,1007.79
2018-05-07T00:37:12.123Z,1007.78
2018-05-07T00:38:12.139Z,1007.78
2018-05-07T00:39:12.069Z,1007.75
2018-05-07T00:40:12.039Z,1007.76
2018-05-07T00:41:12.023Z,1007.75
2018-05-07T00:42:11.996Z,1007.70
2018-05-07T00:43:11.973Z,1007.73
2018-05-07T00:44:11.939Z,1007.75
2018-05-07T00:45:11.922Z,1007.77
2018-05-07T00:46:11.898Z,1007.81
2018-05-07T00:47:11.881Z,1007.83
2018-05-07T00:48:11.848Z,1007.82
2018-05-07T00:49:11.824Z,1007.81
2018-05-07T00:50:11.801Z,1007.78
2018-05-07T00:51:11.780Z,1007.78
2018-05-07T00:52:11.750Z,1007.75
2018-05-07T00:53:11.717Z,1007.78
2018-05-07T00:54:11.705Z,1007.79
2018-05-07T00:55:11.672Z,1007.78
2018-05-07T00:56:11.651Z,1007.76
2018-05-07T00:57:11.628Z,1007.77
2018-05-07T00:58:11.603Z,1007.80
2018-05-07T00:59:11.575Z,1007.78
2018-05-07T01:00:11.551Z,1007.81
2018-05-07T01:01:11.529Z,1007.83
2018-05-07T01:02:11.500Z,1007.82
2018-05-07T01:03:11.485Z,1007.81
2018-05-07T01:04:11.452Z,1007.82
2018-05-07T01:05:11.437Z,1007.82
2018-05-07T01:06:11.408Z,1007.81
2018-05-07T01:07:11.386Z,1007.84
2018-05-07T01:08:11.359Z,1007.86
2018-05-07T01:09:11.336Z,1007.81
2018-05-07T01:10:11.307Z,1007.79
2018-05-07T01:11:11.297Z,1007.83
2018-05-07T01:12:11.255Z,1007.82
2018-05-07T01:13:11.233Z,1007.82
2018-05-07T01:14:11.217Z,1007.81
2018-05-07T01:15:11.187Z,1007.85
2018-05-07T01:16:11.159Z,1007.82
2018-05-07T01:17:11.148Z,1007.84
2018-05-07T01:18:11.111Z,1007.86
2018-05-07T01:19:11.088Z,1007.86
2018-05-07T01:20:11.064Z,1007.87
2018-05-07T01:21:11.047Z,1007.91
2018-05-07T01:22:11.016Z,1007.89
2018-05-07T01:23:10.989Z,1007.91
2018-05-07T01:24:10.965Z,1007.90
2018-05-07T01:25:10.941Z,1007.89
2018-05-07T01:26:10.923Z,1007.90
2018-05-07T01:27:10.895Z,1007.86
2018-05-07T01:28:10.867Z,1007.83
2018-05-07T01:29:10.839Z,1007.85
2018-05-07T01:30:10.818Z,1007.87
2018-05-07T01:31:10.795Z,1007.91
2018-05-07T01:32:10.772Z,1007.89
2018-05-07T01:33:10.752Z,1007.90
2018-05-07T01:34:10.719Z,1007.92
2018-05-07T01:35:10.699Z,1007.91
2018-05-07T01:36:10.673Z,1007.92
2018-05-07T01:37:10.651Z,1007.89
2018-05-07T01:38:10.618Z,1007.91
2018-05-07T01:39:10.606Z,1007.94
2018-05-07T01:40:10.574Z,1007.93
2018-05-07T01:41:10.555Z,1007.89
2018-05-07T01:42:10.529Z,1007.88
2018-05-07T01:43:10.495Z,1007.87
2018-05-07T01:44:10.467Z,1007.92
2018-05-07T01:45:10.457Z,1007.86
2018-05-07T01:46:10.424Z,1007.87
2018-05-07T01:47:10.396Z,1007.87
2018-05-07T01:48:10.381Z,1007.89
2018-05-07T01:49:10.348Z,1007.92
2018-05-07T01:50:10.332Z,1007.85
2018-05-07T01:51:10.305Z,1007.87
2018-05-07T01:52:10.276Z,1007.89
2018-05-07T01:53:10.249Z,1007.88
2018-05-07T01:54:10.234Z,1007.89
2018-05-07T01:55:10.200Z,1007.92
2018-05-07T01:56:10.180Z,1007.88
2018-05-07T01:57:10.152Z,1007.88
2018-05-07T01:58:10.127Z,1007.87
2018-05-07T01:59:10.106Z,1007.84
2018-05-07T02:00:10.076Z,1007.84
2018-05-07T02:01:10.056Z,1007.84
2018-05-07T02:02:10.035Z,1007.83
2018-05-07T02:03:10.007Z,1007.85
2018-05-07T02:04:09.984Z,1007.84
2018-05-07T02:05:09.961Z,1007.78
2018-05-07T02:06:09.928Z,1007.73
2018-05-07T02:07:09.908Z,1007.75
2018-05-07T02:08:09.887Z,1007.72
2018-05-07T02:09:09.853Z,1007.73
2018-05-07T02:10:09.829Z,1007.73
2018-05-07T02:11:09.807Z,1007.71
2018-05-07T02:12:09.780Z,1007.72
2018-05-07T02:13:09.761Z,1007.69
2018-05-07T02:14:09.734Z,1007.67
2018-05-07T02:15:09.707Z,1007.70
2018-05-07T02:16:09.682Z,1007.74
2018-05-07T02:17:09.665Z,1007.75
2018-05-07T02:18:09.636Z,1007.76
2018-05-07T02:19:09.613Z,1007.72
2018-05-07T02:20:09.588Z,1007.70
2018-05-07T02:21:09.556Z,1007.73
2018-05-07T02:22:09.538Z,1007.72
2018-05-07T02:23:09.506Z,1007.74
2018-05-07T02:24:09.486Z,1007.78
2018-05-07T02:25:09.458Z,1007.74
2018-05-07T02:26:09.436Z,1007.72
2018-05-07T02:27:09.408Z,1007.77
2018-05-07T02:28:09.380Z,1007.74
2018-05-07T02:29:09.365Z,1007.75
2018-05-07T02:30:09.332Z,1007.72
2018-05-07T02:31:09.321Z,1007.72
2018-05-07T02:32:09.284Z,1007.70
2018-05-07T02:33:09.265Z,1007.71
2018-05-07T02:34:09.240Z,1007.74
2018-05-07T02:35:09.223Z,1007.75
2018-05-07T02:36:09.193Z,1007.74
2018-05-07T02:37:09.174Z,1007.74
2018-05-07T02:38:09.139Z,1007.74
2018-05-07T02:39:09.122Z,1007.74
2018-05-07T02:40:09.092Z,1007.72
2018-05-07T02:41:09.071Z,1007.76
2018-05-07T02:42:09.040Z,1007.75
2018-05-07T02:43:09.023Z,1007.74
2018-05-07T02:44:08.990Z,1007.69
2018-05-07T02:45:08.972Z,1007.74
2018-05-07T02:46:08.942Z,1007.71
2018-05-07T02:47:08.923Z,1007.70
2018-05-07T02:48:08.891Z,1007.70
2018-05-07T02:49:08.876Z,1007.66
2018-05-07T02:50:08.844Z,1007.63
2018-05-07T02:51:08.824Z,1007.66
2018-05-07T02:52:08.803Z,1007.68
2018-05-07T02:53:08.767Z,1007.63
2018-05-07T02:54:08.751Z,1007.66
2018-05-07T02:55:08.720Z,1007.64
2018-05-07T02:56:08.704Z,1007.63
2018-05-07T02:57:08.669Z,1007.64
2018-05-07T02:58:08.646Z,1007.68
2018-05-07T02:59:08.620Z,1007.66
2018-05-07T03:00:08.600Z,1007.66
2018-05-07T03:01:08.572Z,1007.64
2018-05-07T03:02:08.553Z,1007.63
2018-05-07T03:03:08.518Z,1007.61
2018-05-07T03:04:08.503Z,1007.60
2018-05-07T03:05:08.490Z,1007.61
2018-05-07T03:06:08.446Z,1007.60
2018-05-07T03:07:08.418Z,1007.61
2018-05-07T03:08:08.399Z,1007.63
2018-05-07T03:09:08.373Z,1007.62
2018-05-07T03:10:08.349Z,1007.65
2018-05-07T03:11:08.329Z,1007.60
2018-05-07T03:12:08.347Z,1007.60
2018-05-07T03:13:08.269Z,1007.59
2018-05-07T03:14:08.248Z,1007.58
2018-05-07T03:15:08.223Z,1007.55
2018-05-07T03:16:08.202Z,1007.57
2018-05-07T03:17:08.170Z,1007.55
2018-05-07T03:18:08.145Z,1007.52
2018-05-07T03:19:08.126Z,1007.50
2018-05-07T03:20:08.099Z,1007.53
2018-05-07T03:21:08.074Z,1007.48
2018-05-07T03:22:08.045Z,1007.53
2018-05-07T03:23:08.026Z,1007.49
2018-05-07T03:24:08.003Z,1007.51
2018-05-07T03:25:07.971Z,1007.51
2018-05-07T03:26:07.953Z,1007.48
2018-05-07T03:27:07.919Z,1007.47
2018-05-07T03:28:07.899Z,1007.46
2018-05-07T03:29:07.874Z,1007.40
2018-05-07T03:30:07.852Z,1007.41
2018-05-07T03:31:07.821Z,1007.35
2018-05-07T03:32:07.801Z,1007.35
2018-05-07T03:33:07.776Z,1007.40
2018-05-07T03:34:07.750Z,1007.37
2018-05-07T03:35:07.725Z,1007.44
2018-05-07T03:36:07.702Z,1007.39
2018-05-07T03:37:07.668Z,1007.38
2018-05-07T03:38:07.654Z,1007.41
2018-05-07T03:39:07.617Z,1007.40
2018-05-07T03:40:07.593Z,1007.38
2018-05-07T03:41:07.578Z,1007.38
2018-05-07T03:42:07.546Z,1007.34
2018-05-07T03:43:07.527Z,1007.39
2018-05-07T03:44:07.495Z,1007.35
2018-05-07T03:45:07.473Z,1007.38
2018-05-07T03:46:07.447Z,1007.38
2018-05-07T03:47:07.425Z,1007.35
2018-05-07T03:48:07.428Z,1007.35
2018-05-07T03:49:07.370Z,1007.33
2018-05-07T03:50:07.349Z,1007.33
2018-05-07T03:51:07.328Z,1007.35
2018-05-07T03:52:07.299Z,1007.33
2018-05-07T03:53:07.272Z,1007.31
2018-05-07T03:54:07.251Z,1007.32
2018-05-07T03:55:07.224Z,1007.31
2018-05-07T03:56:07.197Z,1007.30
2018-05-07T03:57:07.180Z,1007.30
2018-05-07T03:58:07.150Z,1007.26
2018-05-07T03:59:07.118Z,1007.26
2018-05-07T04:00:07.096Z,1007.25
2018-05-07T04:01:07.076Z,1007.25
2018-05-07T04:02:07.046Z,1007.23
2018-05-07T04:03:07.039Z,1007.23
2018-05-07T04:04:06.995Z,1007.21
2018-05-07T04:05:06.967Z,1007.21
2018-05-07T04:06:06.938Z,1007.23
2018-05-07T04:07:06.928Z,1007.22
2018-05-07T04:08:06.895Z,1007.22
2018-05-07T04:09:06.867Z,1007.22
2018-05-07T04:10:06.844Z,1007.22
2018-05-07T04:11:06.814Z,1007.25
2018-05-07T04:12:06.797Z,1007.22
2018-05-07T04:13:06.775Z,1007.26
2018-05-07T04:14:06.920Z,1007.23
2018-05-07T04:15:06.854Z,1007.21
2018-05-07T04:16:06.688Z,1007.21
2018-05-07T04:17:06.719Z,1007.21
2018-05-07T04:18:06.722Z,1007.20
2018-05-07T04:19:06.617Z,1007.23
2018-05-07T04:20:06.594Z,1007.19
2018-05-07T04:21:06.560Z,1007.20
2018-05-07T04:22:06.534Z,1007.22
2018-05-07T04:23:06.512Z,1007.23
2018-05-07T04:24:06.487Z,1007.20
2018-05-07T04:25:06.466Z,1007.21
2018-05-07T04:26:06.438Z,1007.22
2018-05-07T04:27:06.420Z,1007.19
2018-05-07T04:28:06.383Z,1007.19
2018-05-07T04:29:06.363Z,1007.21
2018-05-07T04:30:06.332Z,1007.22
2018-05-07T04:31:06.312Z,1007.16
2018-05-07T04:32:06.282Z,1007.15
2018-05-07T04:33:06.274Z,1007.18
2018-05-07T04:34:06.229Z,1007.17
2018-05-07T04:35:06.213Z,1007.19
2018-05-07T04:36:06.176Z,1007.18
2018-05-07T04:37:06.162Z,1007.17
2018-05-07T04:38:06.128Z,1007.21
2018-05-07T04:39:06.104Z,1007.19
2018-05-07T04:40:06.079Z,1007.18
2018-05-07T04:41:06.056Z,1007.18
2018-05-07T04:42:06.029Z,1007.23
2018-05-07T04:43:06.007Z,1007.21
2018-05-07T04:44:05.976Z,1007.20
2018-05-07T04:45:05.959Z,1007.19
2018-05-07T04:46:05.927Z,1007.23
2018-05-07T04:47:05.909Z,1007.21
2018-05-07T04:48:05.877Z,1007.21
2018-05-07T04:49:05.855Z,1007.22
2018-05-07T04:50:05.826Z,1007.23
2018-05-07T04:51:05.806Z,1007.24
2018-05-07T04:52:05.784Z,1007.24
2018-05-07T04:53:05.769Z,1007.23
2018-05-07T04:54:05.724Z,1007.22
2018-05-07T04:55:05.729Z,1007.24
2018-05-07T04:56:05.675Z,1007.21
2018-05-07T04:57:05.658Z,1007.27
2018-05-07T04:58:05.627Z,1007.27
2018-05-07T04:59:05.603Z,1007.22
2018-05-07T05:00:05.585Z,1007.25
2018-05-07T05:01:05.552Z,1007.24
2018-05-07T05:02:05.530Z,1007.26
2018-05-07T05:03:05.497Z,1007.26
2018-05-07T05:04:05.470Z,1007.29
2018-05-07T05:05:05.456Z,1007.26
2018-05-07T05:06:05.425Z,1007.26
2018-05-07T05:07:05.456Z,1007.31
2018-05-07T05:08:05.374Z,1007.29
2018-05-07T05:09:05.424Z,1007.29
2018-05-07T05:10:05.324Z,1007.32
2018-05-07T05:11:05.298Z,1007.31
2018-05-07T05:12:05.271Z,1007.33
2018-05-07T05:13:05.248Z,1007.35
2018-05-07T05:14:05.222Z,1007.33
2018-05-07T05:15:05.192Z,1007.30
2018-05-07T05:16:05.169Z,1007.32
2018-05-07T05:17:05.151Z,1007.33
2018-05-07T05:18:05.123Z,1007.33
2018-05-07T05:19:05.093Z,1007.33
2018-05-07T05:20:05.072Z,1007.32
2018-05-07T05:21:05.120Z,1007.32
2018-05-07T05:22:05.028Z,1007.33
2018-05-07T05:23:04.992Z,1007.30
2018-05-07T05:24:04.974Z,1007.31
2018-05-07T05:25:04.947Z,1007.30
2018-05-07T05:26:04.923Z,1007.30
2018-05-07T05:27:04.897Z,1007.30
2018-05-07T05:28:04.866Z,1007.29
2018-05-07T05:29:04.848Z,1007.31
2018-05-07T05:30:04.818Z,1007.28
2018-05-07T05:31:04.795Z,1007.28
2018-05-07T05:32:04.765Z,1007.31
2018-05-07T05:33:04.754Z,1007.28
2018-05-07T05:34:04.717Z,1007.25
2018-05-07T05:35:04.695Z,1007.27
2018-05-07T05:36:04.669Z,1007.29
2018-05-07T05:37:04.652Z,1007.27
2018-05-07T05:38:04.615Z,1007.31
2018-05-07T05:39:04.597Z,1007.31
2018-05-07T05:40:04.579Z,1007.27
2018-05-07T05:41:04.550Z,1007.28
2018-05-07T05:42:04.516Z,1007.28
2018-05-07T05:43:04.499Z,1007.26
2018-05-07T05:44:04.467Z,1007.26
2018-05-07T05:45:04.445Z,1007.29
2018-05-07T05:46:04.423Z,1007.26
2018-05-07T05:47:04.395Z,1007.25
2018-05-07T05:48:04.373Z,1007.26
2018-05-07T05:49:04.341Z,1007.28
2018-05-07T05:50:04.358Z,1007.25
2018-05-07T05:51:04.296Z,1007.27
2018-05-07T05:52:04.276Z,1007.27
2018-05-07T05:53:04.243Z,1007.30
2018-05-07T05:54:04.222Z,1007.26
2018-05-07T05:55:04.198Z,1007.25
2018-05-07T05:56:04.176Z,1007.24
2018-05-07T05:57:04.142Z,1007.29
2018-05-07T05:58:04.115Z,1007.29
2018-05-07T05:59:04.098Z,1007.34
2018-05-07T06:00:04.078Z,1007.32
2018-05-07T06:01:04.041Z,1007.34
2018-05-07T06:02:04.017Z,1007.31
2018-05-07T06:03:03.998Z,1007.33
2018-05-07T06:04:03.985Z,1007.34
2018-05-07T06:05:03.944Z,1007.31
2018-05-07T06:06:03.921Z,1007.32
2018-05-07T06:07:03.893Z,1007.31
2018-05-07T06:08:03.875Z,1007.31
2018-05-07T06:09:03.912Z,1007.32
2018-05-07T06:10:03.829Z,1007.33
2018-05-07T06:11:03.792Z,1007.30
2018-05-07T06:12:03.784Z,1007.32
2018-05-07T06:13:03.745Z,1007.30
2018-05-07T06:14:03.726Z,1007.32
2018-05-07T06:15:03.752Z,1007.31
2018-05-07T06:16:03.678Z,1007.31
2018-05-07T06:17:03.651Z,1007.33
2018-05-07T06:18:03.637Z,1007.33
2018-05-07T06:19:03.595Z,1007.31
2018-05-07T06:20:03.571Z,1007.29
2018-05-07T06:21:03.549Z,1007.33
2018-05-07T06:22:03.552Z,1007.34
2018-05-07T06:23:03.499Z,1007.31
2018-05-07T06:24:03.474Z,1007.33
2018-05-07T06:25:03.452Z,1007.33
2018-05-07T06:26:03.463Z,1007.33
2018-05-07T06:27:03.398Z,1007.34
2018-05-07T06:28:03.372Z,1007.36
2018-05-07T06:29:03.352Z,1007.30
2018-05-07T06:30:03.321Z,1007.31
2018-05-07T06:31:03.304Z,1007.33
2018-05-07T06:32:03.274Z,1007.32
2018-05-07T06:33:03.258Z,1007.30
2018-05-07T06:34:03.222Z,1007.27
2018-05-07T06:35:03.205Z,1007.26
2018-05-07T06:36:03.178Z,1007.29
2018-05-07T06:37:03.152Z,1007.23
2018-05-07T06:38:03.126Z,1007.22
2018-05-07T06:39:03.104Z,1007.27
2018-05-07T06:40:03.074Z,1007.24
2018-05-07T06:41:03.051Z,1007.25
2018-05-07T06:42:03.025Z,1007.24
2018-05-07T06:43:03.004Z,1007.27
2018-05-07T06:44:02.982Z,1007.22
2018-05-07T06:45:02.951Z,1007.28
2018-05-07T06:46:03.009Z,1007.25
2018-05-07T06:47:02.903Z,1007.25
2018-05-07T06:48:02.882Z,1007.27
2018-05-07T06:49:02.857Z,1007.27
2018-05-07T06:50:02.833Z,1007.28
2018-05-07T06:51:02.805Z,1007.29
2018-05-07T06:52:02.861Z,1007.32
2018-05-07T06:53:02.761Z,1007.25
2018-05-07T06:54:02.729Z,1007.29
2018-05-07T06:55:02.710Z,1007.30
2018-05-07T06:56:02.684Z,1007.30
2018-05-07T06:57:02.664Z,1007.28
2018-05-07T06:58:02.630Z,1007.30
2018-05-07T06:59:02.614Z,1007.28
2018-05-07T07:00:02.588Z,1007.30
2018-05-07T07:01:02.560Z,1007.30
2018-05-07T07:02:02.551Z,1007.30
2018-05-07T07:03:02.581Z,1007.25
2018-05-07T07:04:02.494Z,1007.31
2018-05-07T07:05:02.459Z,1007.26
2018-05-07T07:06:02.436Z,1007.26
2018-05-07T07:07:02.418Z,1007.27
2018-05-07T07:08:02.442Z,1007.21
2018-05-07T07:09:02.370Z,1007.30
2018-05-07T07:10:02.337Z,1007.26
2018-05-07T07:11:02.322Z,1007.27
2018-05-07T07:12:02.292Z,1007.26
2018-05-07T07:13:02.268Z,1007.27
2018-05-07T07:14:02.244Z,1007.23
2018-05-07T07:15:02.220Z,1007.18
2018-05-07T07:16:02.199Z,1007.19
2018-05-07T07:17:02.165Z,1007.23
2018-05-07T07:18:02.149Z,1007.18
2018-05-07T07:19:02.117Z,1007.20
2018-05-07T07:20:02.101Z,1007.19
2018-05-07T07:21:02.072Z,1007.21
2018-05-07T07:22:02.048Z,1007.17
2018-05-07T07:23:02.023Z,1007.15
2018-05-07T07:24:01.998Z,1007.14
2018-05-07T07:25:01.975Z,1007.13
2018-05-07T07:26:01.959Z,1007.12
2018-05-07T07:27:01.943Z,1007.17
2018-05-07T07:28:02.005Z,1007.14
2018-05-07T07:29:01.882Z,1007.13
2018-05-07T07:30:01.851Z,1007.15
2018-05-07T07:31:01.832Z,1007.16
2018-05-07T07:32:01.802Z,1007.13
2018-05-07T07:33:01.798Z,1007.16
2018-05-07T07:34:01.844Z,1007.12
2018-05-07T07:35:01.735Z,1007.13
2018-05-07T07:36:01.707Z,1007.15
2018-05-07T07:37:01.685Z,1007.14
2018-05-07T07:38:01.657Z,1007.13
2018-05-07T07:39:01.638Z,1007.12
2018-05-07T07:40:01.612Z,1007.14
2018-05-07T07:41:01.591Z,1007.16
2018-05-07T07:42:01.558Z,1007.16
2018-05-07T07:43:01.544Z,1007.15
2018-05-07T07:44:01.519Z,1007.17
2018-05-07T07:45:01.494Z,1007.20
2018-05-07T07:46:01.469Z,1007.21
2018-05-07T07:47:01.530Z,1007.24
2018-05-07T07:48:01.423Z,1007.19
2018-05-07T07:49:01.390Z,1007.24
2018-05-07T07:50:01.374Z,1007.20
2018-05-07T07:51:01.347Z,1007.23
2018-05-07T07:52:01.321Z,1007.22
2018-05-07T07:53:01.340Z,1007.19
2018-05-07T07:54:01.275Z,1007.22
2018-05-07T07:55:01.248Z,1007.19
2018-05-07T07:56:01.231Z,1007.18
2018-05-07T07:57:01.204Z,1007.18
2018-05-07T07:58:01.185Z,1007.20
2018-05-07T07:59:01.150Z,1007.19
2018-05-07T08:00:01.131Z,1007.19
2018-05-07T08:01:01.112Z,1007.20
2018-05-07T08:02:01.077Z,1007.17
2018-05-07T08:03:01.058Z,1007.21
2018-05-07T08:04:01.030Z,1007.19
2018-05-07T08:05:01.020Z,1007.22
2018-05-07T08:06:00.988Z,1007.24
2018-05-07T08:07:00.960Z,1007.19
2018-05-07T08:08:00.938Z,1007.15
2018-05-07T08:09:00.917Z,1007.17
2018-05-07T08:10:00.904Z,1007.16
2018-05-07T08:11:00.889Z,1007.17
2018-05-07T08:12:00.868Z,1007.16
2018-05-07T08:13:00.824Z,1007.16
2018-05-07T08:14:00.797Z,1007.15
2018-05-07T08:15:00.775Z,1007.11
2018-05-07T08:16:00.746Z,1007.09
2018-05-07T08:17:00.725Z,1007.10
2018-05-07T08:18:00.708Z,1007.11
2018-05-07T08:19:00.671Z,1007.11
2018-05-07T08:20:00.655Z,1007.11
2018-05-07T08:21:00.701Z,1007.09
2018-05-07T08:22:00.616Z,1007.08
2018-05-07T08:23:00.583Z,1007.06
2018-05-07T08:24:00.553Z,1007.03
2018-05-07T08:25:00.538Z,1007.05
2018-05-07T08:26:00.505Z,1007.03
2018-05-07T08:27:00.492Z,1007.05
2018-05-07T08:28:00.467Z,1007.03
2018-05-07T08:29:00.437Z,1007.01
2018-05-07T08:30:00.419Z,1007.05
2018-05-07T08:31:00.399Z,1007.05
2018-05-07T08:32:00.372Z,1007.03
2018-05-07T08:33:00.351Z,1007.06
2018-05-07T08:34:00.320Z,1007.05
2018-05-07T08:35:00.297Z,1007.00
2018-05-07T08:36:00.270Z,1006.98
2018-05-07T08:37:00.256Z,1007.03
2018-05-07T08:38:00.222Z,1006.96
2018-05-07T08:39:00.209Z,1006.94
2018-05-07T08:40:00.180Z,1006.99
2018-05-07T08:41:00.159Z,1006.96
2018-05-07T08:42:00.131Z,1006.91
2018-05-07T08:43:00.112Z,1006.94
2018-05-07T08:44:00.088Z,1006.93
2018-05-07T08:45:00.060Z,1006.91
2018-05-07T08:46:00.035Z,1006.89
2018-05-07T08:47:00.015Z,1006.92
2018-05-07T08:47:59.996Z,1006.90
2018-05-07T08:48:59.974Z,1006.87
2018-05-07T08:49:59.944Z,1006.89
2018-05-07T08:50:59.948Z,1006.85
2018-05-07T08:51:59.898Z,1006.85
2018-05-07T08:52:59.986Z,1006.86
2018-05-07T08:53:59.855Z,1006.81
2018-05-07T08:54:59.855Z,1006.81
2018-05-07T08:55:59.802Z,1006.82
2018-05-07T08:56:59.787Z,1006.80
2018-05-07T08:57:59.763Z,1006.84
2018-05-07T08:58:59.733Z,1006.82
2018-05-07T08:59:59.716Z,1006.84
2018-05-07T09:00:59.688Z,1006.83
2018-05-07T09:01:59.669Z,1006.83
2018-05-07T09:02:59.646Z,1006.80
2018-05-07T09:03:59.616Z,1006.75
2018-05-07T09:04:59.600Z,1006.78
2018-05-07T09:05:59.571Z,1006.73
2018-05-07T09:06:59.553Z,1006.75
2018-05-07T09:07:59.583Z,1006.71
2018-05-07T09:08:59.506Z,1006.72
2018-05-07T09:09:59.481Z,1006.70
2018-05-07T09:10:59.455Z,1006.69
2018-05-07T09:11:59.432Z,1006.69
2018-05-07T09:12:59.413Z,1006.68
2018-05-07T09:13:59.391Z,1006.67
2018-05-07T09:14:59.359Z,1006.64
2018-05-07T09:15:59.336Z,1006.65
2018-05-07T09:16:59.316Z,1006.68
2018-05-07T09:17:59.353Z,1006.67
2018-05-07T09:18:59.270Z,1006.63
2018-05-07T09:19:59.251Z,1006.64
2018-05-07T09:20:59.223Z,1006.60
2018-05-07T09:21:59.202Z,1006.60
2018-05-07T09:22:59.184Z,1006.62
2018-05-07T09:23:59.153Z,1006.61
2018-05-07T09:24:59.134Z,1006.60
2018-05-07T09:25:59.109Z,1006.61
2018-05-07T09:26:59.088Z,1006.55
2018-05-07T09:27:59.059Z,1006.51
2018-05-07T09:28:59.046Z,1006.52
2018-05-07T09:29:59.012Z,1006.50
2018-05-07T09:30:59.026Z,1006.47
2018-05-07T09:31:58.980Z,1006.46
2018-05-07T09:32:58.949Z,1006.48
2018-05-07T09:33:58.925Z,1006.48
2018-05-07T09:34:58.903Z,1006.45
2018-05-07T09:35:58.873Z,1006.43
2018-05-07T09:36:58.893Z,1006.44
2018-05-07T09:37:58.834Z,1006.46
2018-05-07T09:38:58.807Z,1006.42
2018-05-07T09:39:58.783Z,1006.40
2018-05-07T09:40:58.768Z,1006.42
2018-05-07T09:41:58.739Z,1006.39
2018-05-07T09:42:58.744Z,1006.38
2018-05-07T09:43:58.695Z,1006.41
2018-05-07T09:44:58.677Z,1006.44
2018-05-07T09:45:58.648Z,1006.42
2018-05-07T09:46:58.631Z,1006.42
2018-05-07T09:47:58.600Z,1006.40
2018-05-07T09:48:58.606Z,1006.41
2018-05-07T09:49:58.560Z,1006.40
2018-05-07T09:50:58.540Z,1006.36
2018-05-07T09:51:58.511Z,1006.35
2018-05-07T09:52:58.488Z,1006.36
2018-05-07T09:53:58.472Z,1006.35
2018-05-07T09:54:58.439Z,1006.34
2018-05-07T09:55:58.421Z,1006.36
2018-05-07T09:56:58.582Z,1006.34
2018-05-07T09:57:58.384Z,1006.30
2018-05-07T09:58:58.350Z,1006.30
2018-05-07T09:59:58.327Z,1006.28
2018-05-07T10:00:58.313Z,1006.26
2018-05-07T10:01:58.289Z,1006.24
2018-05-07T10:02:58.260Z,1006.26
2018-05-07T10:03:58.240Z,1006.26
2018-05-07T10:04:58.224Z,1006.24
2018-05-07T10:05:58.198Z,1006.21
2018-05-07T10:06:58.171Z,1006.18
2018-05-07T10:07:58.148Z,1006.21
2018-05-07T10:08:58.128Z,1006.18
2018-05-07T10:09:58.104Z,1006.14
2018-05-07T10:10:58.085Z,1006.16
2018-05-07T10:11:58.059Z,1006.12
2018-05-07T10:12:58.038Z,1006.14
2018-05-07T10:13:58.014Z,1006.14
2018-05-07T10:14:57.992Z,1006.12
2018-05-07T10:15:57.965Z,1006.11
2018-05-07T10:16:58.036Z,1006.05
2018-05-07T10:17:57.920Z,1006.10
2018-05-07T10:18:57.905Z,1006.06
2018-05-07T10:19:57.878Z,1006.08
2018-05-07T10:20:57.864Z,1006.09
2018-05-07T10:21:57.832Z,1006.05
2018-05-07T10:22:57.824Z,1006.08
2018-05-07T10:23:57.791Z,1006.05
2018-05-07T10:24:57.771Z,1006.05
2018-05-07T10:25:57.747Z,1006.03
2018-05-07T10:26:57.721Z,1006.00
2018-05-07T10:27:57.700Z,1006.00
2018-05-07T10:28:57.678Z,1006.01
2018-05-07T10:29:57.711Z,1005.99
2018-05-07T10:30:57.630Z,1005.99
2018-05-07T10:31:57.614Z,1006.03
2018-05-07T10:32:57.585Z,1005.99
2018-05-07T10:33:57.567Z,1006.01
2018-05-07T10:34:57.539Z,1005.95
2018-05-07T10:35:57.515Z,1005.98
2018-05-07T10:36:57.503Z,1005.99
2018-05-07T10:37:57.471Z,1005.95
2018-05-07T10:38:57.455Z,1005.97
2018-05-07T10:39:57.428Z,1005.94
2018-05-07T10:40:57.412Z,1005.96
2018-05-07T10:41:57.380Z,1005.93
2018-05-07T10:42:57.363Z,1005.97
2018-05-07T10:43:57.343Z,1005.95
2018-05-07T10:44:57.313Z,1005.96
2018-05-07T10:45:57.296Z,1005.94
2018-05-07T10:46:57.273Z,1005.91
2018-05-07T10:47:57.257Z,1005.90
2018-05-07T10:48:57.224Z,1005.90
2018-05-07T10:49:57.200Z,1005.83
2018-05-07T10:50:57.187Z,1005.86
2018-05-07T10:51:57.161Z,1005.82
2018-05-07T10:52:57.155Z,1005.81
2018-05-07T10:53:57.116Z,1005.80
2018-05-07T10:54:57.095Z,1005.80
2018-05-07T10:55:57.096Z,1005.80
2018-05-07T10:56:57.050Z,1005.84
2018-05-07T10:57:57.021Z,1005.86
2018-05-07T10:58:57.007Z,1005.84
2018-05-07T10:59:56.982Z,1005.81
2018-05-07T11:00:56.959Z,1005.82
2018-05-07T11:01:56.939Z,1005.77
2018-05-07T11:02:56.912Z,1005.75
2018-05-07T11:03:56.899Z,1005.76
2018-05-07T11:04:56.865Z,1005.72
2018-05-07T11:05:56.852Z,1005.75
2018-05-07T11:06:56.821Z,1005.68
2018-05-07T11:07:56.799Z,1005.70
2018-05-07T11:08:56.785Z,1005.69
2018-05-07T11:09:56.755Z,1005.62
2018-05-07T11:10:56.743Z,1005.62
2018-05-07T11:11:56.711Z,1005.62
2018-05-07T11:12:56.693Z,1005.55
2018-05-07T11:13:56.674Z,1005.60
2018-05-07T11:14:56.662Z,1005.61
2018-05-07T11:15:56.626Z,1005.53
2018-05-07T11:16:56.605Z,1005.54
2018-05-07T11:17:56.582Z,1005.50
2018-05-07T11:18:56.576Z,1005.49
2018-05-07T11:19:56.544Z,1005.49
2018-05-07T11:20:56.522Z,1005.46
2018-05-07T11:21:56.491Z,1005.48
2018-05-07T11:22:56.474Z,1005.47
2018-05-07T11:23:56.459Z,1005.48
2018-05-07T11:24:56.427Z,1005.46
2018-05-07T11:25:56.412Z,1005.47
2018-05-07T11:26:56.376Z,1005.47
2018-05-07T11:27:56.360Z,1005.42
2018-05-07T11:28:56.336Z,1005.44
2018-05-07T11:29:56.310Z,1005.42
2018-05-07T11:30:56.301Z,1005.46
2018-05-07T11:31:56.276Z,1005.49
2018-05-07T11:32:56.249Z,1005.48
2018-05-07T11:33:56.234Z,1005.50
2018-05-07T11:34:56.205Z,1005.51
2018-05-07T11:35:56.188Z,1005.49
2018-05-07T11:36:56.163Z,1005.49
2018-05-07T11:37:56.144Z,1005.47
2018-05-07T11:38:56.112Z,1005.49
2018-05-07T11:39:56.100Z,1005.48
2018-05-07T11:40:56.071Z,1005.44
2018-05-07T11:41:56.047Z,1005.47
2018-05-07T11:42:56.033Z,1005.51
2018-05-07T11:43:56.011Z,1005.47
2018-05-07T11:44:55.984Z,1005.47
2018-05-07T11:45:55.960Z,1005.43
2018-05-07T11:46:55.942Z,1005.43
2018-05-07T11:47:55.923Z,1005.40
2018-05-07T11:48:55.892Z,1005.46
2018-05-07T11:49:55.872Z,1005.39
2018-05-07T11:50:55.853Z,1005.36
2018-05-07T11:51:55.832Z,1005.34
2018-05-07T11:52:55.809Z,1005.36
2018-05-07T11:53:55.783Z,1005.34
2018-05-07T11:54:55.768Z,1005.35
2018-05-07T11:55:55.748Z,1005.35
2018-05-07T11:56:55.723Z,1005.29
2018-05-07T11:57:55.706Z,1005.30
2018-05-07T11:58:55.670Z,1005.29
2018-05-07T11:59:55.663Z,1005.30
2018-05-07T12:00:55.632Z,1005.32
2018-05-07T12:01:55.614Z,1005.31
2018-05-07T12:02:55.588Z,1005.26
2018-05-07T12:03:55.571Z,1005.30
2018-05-07T12:04:55.547Z,1005.27